Time;durP1;ratioP1;P1;durP2;ratioP2;P2;SDS_P1;SDS_P2;PMS_P1;PMS_P2;Temp;Humidity;BMP_temperature;BMP_pressure;BME280_temperature;BME280_humidity;BME280_pressure;Samples;Min_cycle;Max_cycle;Signal;HPM_P1;HPM_P2
2022/01/31 00:02:16;;;;;;;6.35;1.90;;;;;;;1.03;46.92;92980.84;2068371;69;20145;-68
2022/01/31 00:04:42;;;;;;;4.25;2.00;;;;;;;0.91;46.80;92972.03;2068144;69;20182;-68
2022/01/31 00:07:09;;;;;;;4.53;1.95;;;;;;;0.71;48.25;92967.25;2068166;69;20183;-67
2022/01/31 00:09:35;;;;;;;4.32;1.80;;;;;;;0.75;48.12;92970.44;2068405;69;20188;-73
2022/01/31 00:12:08;;;;;;;3.85;1.80;;;;;;;0.53;48.82;92965.41;2068168;69;20156;-71
2022/01/31 00:17:00;;;;;;;3.45;1.85;;;;;;;0.60;48.49;92950.91;2068472;69;20232;-69
2022/01/31 00:19:26;;;;;;;4.20;1.85;;;;;;;0.50;48.53;92936.75;2068280;69;20156;-67
2022/01/31 00:21:51;;;;;;;4.15;1.88;;;;;;;0.76;47.35;92933.13;2068632;69;20168;-72
2022/01/31 00:24:17;;;;;;;4.53;2.08;;;;;;;0.63;48.06;92917.31;2068484;69;20156;-68
2022/01/31 00:26:43;;;;;;;3.92;1.92;;;;;;;0.69;47.62;92900.56;2068381;69;20148;-67
2022/01/31 00:29:08;;;;;;;4.50;2.05;;;;;;;0.39;48.82;92890.69;2064948;69;20180;-68
2022/01/31 00:31:34;;;;;;;4.65;2.03;;;;;;;0.70;47.65;92885.41;2068376;69;20161;-69
2022/01/31 00:34:00;;;;;;;4.15;1.70;;;;;;;0.61;47.14;92885.91;2068219;69;20532;-68
2022/01/31 00:36:26;;;;;;;3.70;1.65;;;;;;;0.79;47.82;92882.16;2068105;69;20252;-68
2022/01/31 00:38:52;;;;;;;4.65;1.80;;;;;;;0.54;47.84;92890.06;2068027;69;20160;-66
2022/01/31 00:41:18;;;;;;;4.13;1.88;;;;;;;0.13;48.95;92883.25;2067745;69;20590;-68
2022/01/31 00:43:56;;;;;;;4.68;1.90;;;;;;;0.35;48.40;92878.47;2068340;69;20614;-67
2022/01/31 00:46:27;;;;;;;3.83;1.67;;;;;;;0.55;47.96;92868.66;2068407;69;20232;-75
2022/01/31 00:48:53;;;;;;;3.67;1.70;;;;;;;0.31;48.91;92859.41;2065010;69;20159;-74
2022/01/31 00:51:19;;;;;;;2.70;1.42;;;;;;;0.22;48.01;92852.31;2064875;69;20149;-73
2022/01/31 00:53:45;;;;;;;3.35;1.60;;;;;;;0.23;48.66;92850.31;2068440;69;20175;-76
2022/01/31 00:56:10;;;;;;;3.30;1.50;;;;;;;0.41;47.79;92835.50;2067617;69;20680;-70
2022/01/31 00:58:36;;;;;;;4.82;1.55;;;;;;;0.50;47.96;92826.72;2068170;69;20578;-68
2022/01/31 01:01:02;;;;;;;2.80;1.30;;;;;;;0.42;47.30;92831.44;2068095;69;20523;-76
2022/01/31 01:03:28;;;;;;;3.80;1.48;;;;;;;0.43;47.93;92835.69;2068351;69;20600;-73
2022/01/31 01:05:54;;;;;;;2.70;1.55;;;;;;;0.53;48.06;92826.91;2068658;69;20176;-68
2022/01/31 01:08:20;;;;;;;2.95;1.40;;;;;;;0.21;49.07;92816.88;2067812;69;20129;-68
2022/01/31 01:10:46;;;;;;;4.57;1.75;;;;;;;0.33;48.22;92807.00;2068334;69;20144;-68
2022/01/31 01:13:12;;;;;;;4.10;1.70;;;;;;;0.35;48.15;92812.72;2064892;69;20144;-68
2022/01/31 01:15:37;;;;;;;3.53;1.77;;;;;;;0.28;48.90;92809.91;2067767;69;20179;-68
2022/01/31 01:18:03;;;;;;;5.20;1.60;;;;;;;0.18;49.13;92796.56;2068277;69;20242;-68
2022/01/31 01:20:29;;;;;;;2.53;1.60;;;;;;;0.50;48.12;92771.31;2068298;69;20147;-73
2022/01/31 01:22:55;;;;;;;3.05;1.60;;;;;;;0.55;47.62;92782.78;2068316;69;20191;-71
2022/01/31 01:25:21;;;;;;;3.70;1.70;;;;;;;0.59;47.20;92763.78;2065058;69;20145;-68
2022/01/31 01:27:50;;;;;;;3.42;1.55;;;;;;;0.71;46.98;92753.88;2067719;69;20616;-76
2022/01/31 01:30:17;;;;;;;4.05;1.83;;;;;;;0.21;48.80;92762.22;2065034;69;20156;-73
2022/01/31 01:33:04;;;;;;;5.25;1.63;;;;;;;0.61;47.28;92742.56;2067827;69;20196;-72
2022/01/31 01:35:36;;;;;;;3.97;1.60;;;;;;;0.60;47.37;92749.41;2068283;69;20145;-74
2022/01/31 01:38:07;;;;;;;3.42;1.40;;;;;;;0.40;48.01;92731.53;2068364;69;20156;-69
2022/01/31 01:40:36;;;;;;;5.45;1.52;;;;;;;0.55;47.56;92735.66;2067726;69;20604;-68
2022/01/31 01:43:02;;;;;;;5.15;2.20;;;;;;;0.40;47.81;92716.94;2068336;69;20699;-71
2022/01/31 01:45:28;;;;;;;3.05;1.52;;;;;;;0.43;48.35;92713.09;2068436;69;20592;-68
2022/01/31 01:47:54;;;;;;;3.60;1.65;;;;;;;0.46;47.82;92709.25;2064908;69;20148;-67
2022/01/31 01:50:20;;;;;;;3.63;1.70;;;;;;;0.41;47.79;92694.25;2064904;69;20148;-68
2022/01/31 01:52:45;;;;;;;4.07;1.70;;;;;;;0.38;47.67;92686.28;2068248;69;20180;-67
2022/01/31 01:55:11;;;;;;;3.08;1.15;;;;;;;0.56;47.29;92673.47;2067619;69;20153;-65
2022/01/31 01:57:37;;;;;;;3.60;1.35;;;;;;;0.61;46.86;92658.72;2067593;69;20132;-71
2022/01/31 02:00:06;;;;;;;2.17;1.30;;;;;;;0.81;46.40;92643.25;2064640;69;20172;-67
2022/01/31 02:02:35;;;;;;;1.50;1.20;;;;;;;0.55;46.71;92645.03;2068067;69;20144;-72
2022/01/31 02:05:02;;;;;;;2.40;1.10;;;;;;;0.84;44.99;92637.38;2067417;69;20538;-68
2022/01/31 02:07:36;;;;;;;3.65;2.00;;;;;;;-0.04;49.14;92637.31;2064703;69;20757;-69
2022/01/31 02:10:06;;;;;;;3.65;2.13;;;;;;;0.06;49.12;92634.06;2067414;69;20132;-67
2022/01/31 02:12:41;;;;;;;2.65;1.73;;;;;;;0.39;47.93;92635.16;2064766;69;20584;-68
2022/01/31 02:15:10;;;;;;;3.60;2.00;;;;;;;0.27;48.20;92622.91;2067742;69;20255;-69
2022/01/31 02:17:54;;;;;;;3.33;1.95;;;;;;;0.28;47.93;92624.41;2068271;69;20143;-70
2022/01/31 02:20:21;;;;;;;3.92;1.67;;;;;;;0.64;47.07;92613.25;2067519;69;20236;-68
2022/01/31 02:22:47;;;;;;;2.78;1.58;;;;;;;0.45;47.44;92613.56;2067538;69;20587;-67
2022/01/31 02:25:20;;;;;;;3.33;1.50;;;;;;;0.47;46.53;92622.81;2065155;69;20145;-68
2022/01/31 02:27:48;;;;;;;2.55;1.70;;;;;;;0.14;47.95;92621.75;2065140;69;20612;-66
2022/01/31 02:30:16;;;;;;;3.10;1.73;;;;;;;0.28;47.18;92605.00;2067694;69;20168;-67
2022/01/31 02:32:46;;;;;;;5.65;1.80;;;;;;;0.22;47.33;92586.50;2067552;69;20184;-67
2022/01/31 02:35:15;;;;;;;3.42;1.70;;;;;;;0.35;47.53;92582.13;2068092;69;20148;-67
2022/01/31 02:37:42;;;;;;;3.22;1.90;;;;;;;0.56;46.45;92560.63;2064801;69;20232;-67
2022/01/31 02:40:16;;;;;;;3.47;1.85;;;;;;;0.33;47.35;92557.78;2062218;69;20149;-67
2022/01/31 02:42:42;;;;;;;3.60;1.55;;;;;;;0.23;48.16;92551.28;2064685;69;20192;-67
2022/01/31 02:45:08;;;;;;;4.78;2.08;;;;;;;-0.38;50.23;92554.44;2067598;69;20187;-67
2022/01/31 02:47:39;;;;;;;5.47;1.90;;;;;;;0.06;49.12;92545.47;2064918;69;20696;-67
2022/01/31 02:50:08;;;;;;;2.45;1.65;;;;;;;0.05;49.18;92535.69;2067977;69;20171;-70
2022/01/31 02:52:35;;;;;;;5.00;1.70;;;;;;;0.21;48.43;92524.13;2067525;69;20244;-70
2022/01/31 02:55:04;;;;;;;3.15;1.60;;;;;;;0.08;48.70;92527.03;2064885;69;20508;-73
2022/01/31 02:57:30;;;;;;;3.20;1.50;;;;;;;0.24;48.73;92514.00;2067604;69;20156;-72
2022/01/31 02:59:55;;;;;;;3.40;1.60;;;;;;;0.05;49.23;92505.25;2067485;69;20160;-70
2022/01/31 03:02:24;;;;;;;3.28;1.63;;;;;;;0.03;48.91;92500.25;2068020;69;20592;-71
2022/01/31 03:04:50;;;;;;;4.15;1.80;;;;;;;0.01;49.12;92488.25;2065096;69;20206;-69
2022/01/31 03:07:15;;;;;;;3.88;1.67;;;;;;;0.12;48.52;92479.63;2068010;69;20250;-69
2022/01/31 03:09:41;;;;;;;3.58;1.70;;;;;;;0.09;48.94;92481.47;2065205;69;20199;-70
2022/01/31 03:12:14;;;;;;;4.10;1.60;;;;;;;0.23;48.68;92479.28;2065073;69;20578;-68
2022/01/31 03:14:46;;;;;;;3.10;1.90;;;;;;;0.07;49.44;92472.94;2065085;69;20244;-68
2022/01/31 03:17:31;;;;;;;4.72;1.67;;;;;;;0.21;48.71;92479.09;2068292;69;20604;-73
2022/01/31 03:19:58;;;;;;;5.75;1.70;;;;;;;0.21;48.86;92468.00;2067823;69;20151;-73
2022/01/31 03:22:24;;;;;;;4.38;1.88;;;;;;;0.27;48.59;92456.75;2065120;69;20141;-67
2022/01/31 03:24:50;;;;;;;2.53;1.27;;;;;;;0.35;47.80;92438.16;2065246;69;20240;-67
2022/01/31 03:27:16;;;;;;;2.67;1.45;;;;;;;0.21;49.05;92424.44;2067898;69;20147;-66
2022/01/31 03:29:42;;;;;;;2.90;1.75;;;;;;;0.38;47.58;92414.91;2062466;69;20141;-67
2022/01/31 03:32:09;;;;;;;5.72;2.08;;;;;;;0.06;49.05;92412.63;2068521;69;20210;-65
2022/01/31 03:34:35;;;;;;;8.80;2.90;;;;;;;0.00;49.86;92407.25;2067747;69;20176;-75
2022/01/31 03:37:00;;;;;;;4.90;2.00;;;;;;;-0.05;50.76;92403.34;2071399;69;20157;-71
2022/01/31 03:39:28;;;;;;;5.60;2.05;;;;;;;0.12;49.50;92402.09;2071390;69;20136;-74
2022/01/31 03:41:54;;;;;;;7.30;2.22;;;;;;;0.13;48.90;92398.78;2071815;69;20147;-68
2022/01/31 03:44:19;;;;;;;3.50;2.03;;;;;;;0.18;48.65;92395.13;2071381;69;20570;-67
2022/01/31 03:46:49;;;;;;;6.78;2.45;;;;;;;-0.04;50.06;92388.25;2068525;69;20209;-68
2022/01/31 03:49:14;;;;;;;7.97;2.78;;;;;;;-0.10;50.77;92376.59;2071777;69;20617;-69
2022/01/31 03:51:44;;;;;;;8.10;2.60;;;;;;;0.11;50.30;92348.78;2065827;69;20148;-68
2022/01/31 03:54:12;;;;;;;4.65;2.00;;;;;;;-0.14;50.50;92359.59;2068482;69;20160;-70
2022/01/31 03:56:39;;;;;;;6.53;2.13;;;;;;;0.19;49.55;92351.56;2068127;69;20187;-67
2022/01/31 03:59:31;;;;;;;5.15;1.60;;;;;;;0.22;48.53;92350.44;2071322;69;20144;-68
2022/01/31 04:01:57;;;;;;;2.67;1.27;;;;;;;0.39;47.17;92349.91;2068420;69;20210;-67
2022/01/31 04:04:23;;;;;;;6.88;2.58;;;;;;;-0.62;51.98;92353.75;2068448;69;20156;-67
2022/01/31 04:06:48;;;;;;;5.15;2.20;;;;;;;-0.12;50.31;92340.44;2071911;69;20256;-67
2022/01/31 04:09:14;;;;;;;3.50;2.15;;;;;;;-0.02;49.87;92329.56;2071940;69;20602;-75
2022/01/31 04:11:41;;;;;;;5.55;3.28;;;;;;;0.10;49.08;92327.94;2071889;69;20181;-68
2022/01/31 04:14:08;;;;;;;12.60;5.35;;;;;;;-0.33;50.85;92331.53;2068645;69;20235;-68
2022/01/31 04:16:33;;;;;;;8.55;3.10;;;;;;;0.00;49.71;92343.59;2072123;69;20520;-71
2022/01/31 04:18:59;;;;;;;7.03;3.67;;;;;;;-0.10;50.30;92351.69;2071894;69;20132;-72
2022/01/31 04:21:25;;;;;;;8.52;3.97;;;;;;;0.18;49.33;92356.38;2071785;69;20599;-73
2022/01/31 04:23:51;;;;;;;7.45;3.58;;;;;;;0.08;49.72;92351.91;2071947;69;20172;-70
2022/01/31 04:26:18;;;;;;;7.78;4.15;;;;;;;-0.11;49.72;92355.00;2071992;69;20156;-68
2022/01/31 04:28:50;;;;;;;6.60;3.28;;;;;;;-0.26;51.48;92344.66;2071868;69;20157;-68
2022/01/31 04:33:48;;;;;;;6.53;3.17;;;;;;;0.18;48.99;92328.69;2071956;69;20160;-68
2022/01/31 04:36:15;;;;;;;9.75;4.10;;;;;;;-0.06;50.31;92312.59;2071764;69;20168;-70
2022/01/31 04:38:45;;;;;;;8.77;4.15;;;;;;;-0.15;50.72;92311.09;2071851;69;20155;-68
2022/01/31 04:41:10;;;;;;;6.55;3.75;;;;;;;0.04;49.73;92307.25;2071964;69;20155;-69
2022/01/31 04:43:37;;;;;;;10.48;5.72;;;;;;;0.08;50.85;92302.09;2071884;69;20153;-69
2022/01/31 04:46:05;;;;;;;15.60;8.38;;;;;;;0.09;50.07;92284.94;2071848;69;20527;-73
2022/01/31 04:48:31;;;;;;;40.15;13.57;;;;;;;0.19;50.07;92282.34;2071962;69;20160;-76
2022/01/31 04:50:56;;;;;;;30.13;11.18;;;;;;;0.21;50.92;92266.66;2071736;69;20167;-76
2022/01/31 04:53:22;;;;;;;25.60;10.10;;;;;;;0.29;49.79;92254.84;2071834;69;20187;-70
2022/01/31 04:55:48;;;;;;;41.30;15.05;;;;;;;0.11;50.02;92245.63;2071930;69;20187;-68
2022/01/31 04:58:14;;;;;;;43.38;17.65;;;;;;;0.33;49.66;92233.81;2071789;69;20171;-68
2022/01/31 05:00:40;;;;;;;39.90;14.73;;;;;;;0.42;48.67;92247.06;2071824;69;20159;-69
2022/01/31 05:03:12;;;;;;;38.67;15.10;;;;;;;0.43;48.54;92262.41;2071904;69;20237;-73
2022/01/31 05:05:39;;;;;;;36.65;14.43;;;;;;;0.45;48.81;92253.53;2071702;69;20175;-69
2022/01/31 05:08:05;;;;;;;32.28;14.18;;;;;;;0.33;49.35;92241.38;2071763;69;20168;-67
2022/01/31 05:10:33;;;;;;;28.38;13.45;;;;;;;0.02;50.95;92240.66;2071785;69;20647;-68
2022/01/31 05:12:59;;;;;;;19.63;7.85;;;;;;;0.16;51.43;92222.56;2071884;69;20204;-69
2022/01/31 05:15:24;;;;;;;17.85;7.93;;;;;;;0.37;49.24;92211.28;2071808;69;20239;-67
2022/01/31 05:17:50;;;;;;;27.85;10.63;;;;;;;-0.07;51.45;92219.78;2071816;69;20156;-67
2022/01/31 05:20:15;;;;;;;24.10;10.00;;;;;;;-0.04;51.65;92207.63;2068350;69;20196;-72
2022/01/31 05:22:41;;;;;;;24.83;8.82;;;;;;;0.27;50.26;92207.59;2071691;69;20585;-73
2022/01/31 05:25:10;;;;;;;20.63;8.15;;;;;;;0.48;49.32;92191.50;2071795;69;20201;-73
2022/01/31 05:27:35;;;;;;;19.05;7.13;;;;;;;0.30;49.20;92176.03;2071856;69;20178;-71
2022/01/31 05:30:02;;;;;;;18.00;7.45;;;;;;;0.53;48.19;92178.72;2071725;69;20152;-71
2022/01/31 05:32:28;;;;;;;19.00;8.15;;;;;;;0.57;48.48;92132.00;2071760;69;20159;-68
2022/01/31 05:34:53;;;;;;;17.17;7.15;;;;;;;0.58;48.66;92134.22;2071649;69;20188;-68
2022/01/31 05:37:19;;;;;;;22.25;7.88;;;;;;;0.10;50.62;92136.22;2071637;69;20175;-69
2022/01/31 05:39:46;;;;;;;15.70;7.18;;;;;;;0.26;49.21;92112.72;2071781;69;20587;-70
2022/01/31 05:42:11;;;;;;;14.00;6.57;;;;;;;0.43;48.96;92112.84;2068436;69;20235;-69
2022/01/31 05:44:37;;;;;;;15.50;6.13;;;;;;;0.53;48.35;92126.09;2071809;69;20523;-68
2022/01/31 05:47:03;;;;;;;11.95;6.13;;;;;;;0.09;49.76;92143.78;2071733;69;20163;-67
2022/01/31 05:49:28;;;;;;;15.23;5.85;;;;;;;0.56;47.94;92138.84;2071599;69;20168;-68
2022/01/31 05:52:04;;;;;;;6.53;3.20;;;;;;;0.66;47.61;92115.53;2071687;69;20682;-71
2022/01/31 05:54:31;;;;;;;7.18;3.03;;;;;;;0.03;48.56;92098.94;2071782;69;20159;-74
2022/01/31 05:56:57;;;;;;;91.22;25.30;;;;;;;0.12;49.20;92114.25;2071603;69;20160;-71
2022/01/31 05:59:23;;;;;;;53.70;17.40;;;;;;;0.21;49.40;92103.31;2071638;69;20689;-68
2022/01/31 06:01:49;;;;;;;21.70;8.15;;;;;;;0.31;49.54;92106.25;2071633;69;20148;-72
2022/01/31 06:04:14;;;;;;;9.80;4.63;;;;;;;0.20;48.31;92114.97;2071525;69;20151;-70
2022/01/31 06:06:40;;;;;;;9.77;4.75;;;;;;;0.45;47.85;92110.25;2071553;69;20140;-70
2022/01/31 06:09:06;;;;;;;9.45;3.92;;;;;;;0.59;47.20;92096.91;2071617;69;20224;-69
2022/01/31 06:11:33;;;;;;;13.57;4.13;;;;;;;0.41;46.92;92103.63;2071652;69;20152;-67
2022/01/31 06:14:09;;;;;;;12.15;4.45;;;;;;;0.43;47.63;92104.53;2071763;69;20147;-69
2022/01/31 06:16:35;;;;;;;10.30;4.35;;;;;;;0.56;47.77;92092.50;2071755;69;20315;-68
2022/01/31 06:19:01;;;;;;;12.88;4.75;;;;;;;0.68;46.73;92093.53;2071671;69;20178;-67
2022/01/31 06:21:27;;;;;;;10.02;3.83;;;;;;;0.73;46.91;92072.44;2068235;69;20634;-68
2022/01/31 06:23:53;;;;;;;24.58;11.40;;;;;;;0.14;48.11;92076.41;2071650;69;20600;-68
2022/01/31 06:26:20;;;;;;;10.65;5.22;;;;;;;0.50;47.37;92058.72;2071741;69;20163;-72
2022/01/31 06:28:55;;;;;;;16.42;8.38;;;;;;;0.69;47.13;92050.69;2067980;69;20253;-72
2022/01/31 06:31:39;;;;;;;10.88;5.60;;;;;;;0.40;47.39;92055.06;2068322;69;20275;-67
2022/01/31 06:34:05;;;;;;;17.98;7.70;;;;;;;0.43;47.64;92059.50;2071536;69;20184;-72
2022/01/31 06:36:30;;;;;;;18.45;6.63;;;;;;;0.59;47.32;92044.25;2071300;69;20132;-71
2022/01/31 06:38:56;;;;;;;14.48;5.60;;;;;;;0.43;47.12;92023.50;2068266;69;20147;-73
2022/01/31 06:41:23;;;;;;;13.00;5.28;;;;;;;0.44;47.95;92009.09;2071577;69;20539;-73
2022/01/31 06:43:50;;;;;;;15.52;6.00;;;;;;;0.69;47.84;91995.28;2071562;69;20144;-71
2022/01/31 06:46:16;;;;;;;13.40;5.05;;;;;;;0.50;47.71;92004.09;2071873;69;20168;-75
2022/01/31 06:48:42;;;;;;;9.70;4.65;;;;;;;0.49;47.99;92018.47;2071607;69;20239;-69
2022/01/31 06:51:08;;;;;;;11.90;4.93;;;;;;;0.62;47.44;92009.91;2071578;69;20224;-71
2022/01/31 06:53:34;;;;;;;12.63;4.80;;;;;;;0.81;46.75;92003.88;2071509;69;20223;-68
2022/01/31 06:56:00;;;;;;;12.13;4.05;;;;;;;0.82;46.50;91987.97;2071496;69;20148;-74
2022/01/31 06:58:26;;;;;;;7.75;4.07;;;;;;;0.66;46.32;91974.25;2071571;69;20167;-68
2022/01/31 07:00:53;;;;;;;10.73;4.38;;;;;;;0.53;47.03;91982.09;2071548;69;20145;-69
2022/01/31 07:03:19;;;;;;;10.40;4.07;;;;;;;0.65;47.35;91977.59;2071558;69;20144;-70
2022/01/31 07:05:45;;;;;;;9.57;3.65;;;;;;;0.49;46.70;91985.97;2071521;69;20156;-68
2022/01/31 07:08:12;;;;;;;10.23;4.68;;;;;;;0.70;46.71;91984.94;2071486;69;20159;-72
2022/01/31 07:10:38;;;;;;;11.63;4.88;;;;;;;0.50;47.12;91967.31;2071549;69;20523;-69
2022/01/31 07:13:24;;;;;;;11.18;4.90;;;;;;;0.67;46.88;91977.75;2071638;69;20204;-68
2022/01/31 07:15:50;;;;;;;10.50;3.97;;;;;;;0.80;46.70;91971.94;2071440;69;20148;-70
2022/01/31 07:18:16;;;;;;;10.07;4.07;;;;;;;0.75;47.08;91978.44;2071460;69;20176;-73
2022/01/31 07:20:46;;;;;;;6.18;3.40;;;;;;;0.69;46.52;91953.72;2068040;69;20143;-68
2022/01/31 07:23:18;;;;;;;8.05;3.42;;;;;;;0.69;46.20;91953.72;2071476;69;20205;-69
2022/01/31 07:25:43;;;;;;;10.65;4.47;;;;;;;0.62;46.99;91984.25;2071616;69;20234;-68
2022/01/31 07:28:11;;;;;;;13.88;5.50;;;;;;;0.85;46.74;91954.34;2071442;69;20168;-69
2022/01/31 07:30:39;;;;;;;8.85;4.35;;;;;;;0.91;46.04;91957.59;2071541;69;20152;-69
2022/01/31 07:33:09;;;;;;;10.63;4.13;;;;;;;0.92;45.58;91944.50;2067801;69;20141;-69
2022/01/31 07:35:35;;;;;;;16.63;6.80;;;;;;;0.69;46.77;91978.66;2071513;69;20172;-68
2022/01/31 07:38:00;;;;;;;19.85;6.30;;;;;;;1.05;45.96;91943.47;2071415;69;20148;-69
2022/01/31 07:40:26;;;;;;;12.70;5.70;;;;;;;1.09;45.86;91938.97;2071457;69;20149;-68
2022/01/31 07:42:52;;;;;;;10.85;4.85;;;;;;;0.88;46.02;91974.66;2071421;69;20135;-69
2022/01/31 07:45:17;;;;;;;12.32;6.18;;;;;;;0.63;47.72;91980.91;2071379;69;20611;-69
2022/01/31 07:47:43;;;;;;;12.25;5.82;;;;;;;0.95;46.38;91976.63;2071781;69;20144;-69
2022/01/31 07:50:09;;;;;;;12.15;5.18;;;;;;;0.83;47.01;92008.88;2071962;69;20160;-69
2022/01/31 07:52:35;;;;;;;11.13;5.10;;;;;;;0.89;47.01;92009.38;2071976;69;20137;-69
2022/01/31 07:55:01;;;;;;;15.35;6.25;;;;;;;0.84;46.97;91991.66;2071386;69;20148;-70
2022/01/31 07:57:26;;;;;;;16.17;6.03;;;;;;;0.87;46.95;91998.88;2071905;69;20178;-70
2022/01/31 07:59:52;;;;;;;13.68;5.30;;;;;;;1.07;46.87;92012.94;2071909;69;20217;-71
2022/01/31 08:02:18;;;;;;;13.05;5.82;;;;;;;1.17;46.85;92005.47;2071879;69;20592;-71
2022/01/31 08:04:44;;;;;;;12.23;5.63;;;;;;;1.20;47.15;92005.06;2071742;69;20128;-73
2022/01/31 08:07:09;;;;;;;11.82;5.40;;;;;;;1.13;46.25;92010.66;2071799;69;20485;-75
2022/01/31 08:09:35;;;;;;;11.88;5.88;;;;;;;1.37;46.21;91993.25;2071977;69;20148;-68
2022/01/31 08:12:00;;;;;;;15.90;7.43;;;;;;;1.13;46.59;92014.16;2072034;69;20595;-71
2022/01/31 08:14:27;;;;;;;17.15;7.15;;;;;;;0.87;47.59;92009.19;2072112;69;20187;-68
2022/01/31 08:16:52;;;;;;;12.38;6.38;;;;;;;0.92;47.08;92005.47;2071876;69;20156;-72
2022/01/31 08:19:18;;;;;;;16.67;5.72;;;;;;;0.93;47.94;92018.75;2071775;69;20162;-74
2022/01/31 08:21:44;;;;;;;10.18;5.50;;;;;;;1.31;47.33;92020.50;2071973;69;20160;-73
2022/01/31 08:24:09;;;;;;;11.75;5.82;;;;;;;1.31;47.42;92006.63;2071902;69;20206;-70
2022/01/31 08:26:35;;;;;;;13.98;5.55;;;;;;;1.31;46.50;92017.00;2072038;69;20256;-69
2022/01/31 08:31:34;;;;;;;10.63;5.28;;;;;;;1.36;47.05;91983.47;2071906;69;20152;-73
2022/01/31 08:34:07;;;;;;;11.52;5.15;;;;;;;1.39;47.89;91978.84;2071873;69;20140;-71
2022/01/31 08:36:36;;;;;;;;;;;;;;;1.50;46.98;91976.31;2072013;69;20152;-70
2022/01/31 08:39:15;;;;;;;10.82;5.50;;;;;;;1.43;46.31;91970.84;2071831;69;20102;-68
2022/01/31 08:41:43;;;;;;;13.43;5.68;;;;;;;1.64;45.77;91987.09;2071897;69;20136;-68
2022/01/31 08:44:11;;;;;;;13.50;5.68;;;;;;;1.82;44.95;91976.75;2071498;69;20148;-68
2022/01/31 08:46:41;;;;;;;14.68;6.15;;;;;;;1.22;44.04;91958.09;2071812;69;20147;-68
2022/01/31 08:49:10;;;;;;;12.18;4.80;;;;;;;1.15;43.57;91983.13;2072066;69;20155;-68
2022/01/31 08:51:37;;;;;;;10.07;4.65;;;;;;;1.69;43.69;91961.16;2071826;69;20168;-68
2022/01/31 08:54:05;;;;;;;12.20;5.47;;;;;;;1.18;43.40;91951.47;2071840;69;20158;-69
2022/01/31 08:56:35;;;;;;;15.07;5.22;;;;;;;1.16;42.34;91965.91;2071767;69;20284;-68
2022/01/31 08:59:03;;;;;;;10.18;3.80;;;;;;;1.59;41.95;91947.19;2071648;69;20155;-72
2022/01/31 09:01:28;;;;;;;9.63;4.35;;;;;;;2.14;41.79;91937.66;2071741;69;20201;-71
2022/01/31 09:06:26;;;;;;;10.13;4.15;;;;;;;1.89;41.09;91873.22;2071580;69;20141;-73
2022/01/31 09:08:52;;;;;;;15.10;5.28;;;;;;;2.17;40.85;91889.31;2071846;69;20133;-71
2022/01/31 09:11:18;;;;;;;15.98;6.50;;;;;;;2.45;42.41;91849.09;2071818;69;20212;-72
2022/01/31 09:13:44;;;;;;;11.40;4.78;;;;;;;2.68;41.56;91809.09;2071769;69;20136;-70
2022/01/31 09:16:10;;;;;;;8.32;3.47;;;;;;;2.82;39.14;91812.22;2071730;69;20140;-75
2022/01/31 09:18:36;;;;;;;11.98;5.10;;;;;;;3.44;38.84;91799.38;2071859;69;20175;-70
2022/01/31 09:21:03;;;;;;;8.95;4.15;;;;;;;4.15;40.25;91814.78;2071637;69;20152;-70
2022/01/31 09:23:29;;;;;;;8.05;3.92;;;;;;;4.10;39.59;91810.25;2071787;69;20152;-69
2022/01/31 09:25:56;;;;;;;8.77;4.00;;;;;;;4.20;37.04;91826.94;2071751;69;20141;-70
2022/01/31 09:28:21;;;;;;;11.65;4.85;;;;;;;3.95;39.43;91830.09;2071757;69;20144;-69
2022/01/31 09:30:48;;;;;;;9.52;4.45;;;;;;;3.95;39.40;91824.53;2071782;69;20540;-75
2022/01/31 09:33:15;;;;;;;10.90;4.28;;;;;;;4.52;39.93;91826.38;2071812;69;20214;-70
2022/01/31 09:35:42;;;;;;;11.05;4.30;;;;;;;4.44;38.28;91814.69;2071621;69;20235;-73
2022/01/31 09:38:10;;;;;;;7.72;3.80;;;;;;;4.37;39.09;91823.22;2071762;69;20152;-72
2022/01/31 09:40:35;;;;;;;7.38;3.65;;;;;;;4.20;38.11;91791.47;2071758;69;20271;-72
2022/01/31 09:43:23;;;;;;;6.05;3.13;;;;;;;4.67;37.78;91855.97;2071746;69;20363;-69
2022/01/31 09:51:03;;;;;;;2.30;1.03;;;;;;;5.20;38.84;91870.69;2071660;69;20168;-72
2022/01/31 09:53:37;;;;;;;1.88;0.98;;;;;;;5.79;39.57;91868.22;2071685;69;20426;-70
2022/01/31 09:56:07;;;;;;;1.27;0.70;;;;;;;5.59;41.08;91862.78;2068316;69;20141;-73
2022/01/31 09:58:32;;;;;;;1.05;0.70;;;;;;;5.88;41.73;91850.66;2071696;69;20179;-71
2022/01/31 10:01:03;;;;;;;0.50;0.50;;;;;;;5.75;42.53;91856.78;2071837;69;20596;-72
2022/01/31 10:03:28;;;;;;;0.98;0.70;;;;;;;5.82;41.49;91850.28;2071733;69;20133;-71
2022/01/31 10:05:54;;;;;;;5.88;0.80;;;;;;;5.91;41.80;91840.31;2071683;69;20615;-68
2022/01/31 10:08:19;;;;;;;3.05;0.60;;;;;;;6.19;42.32;91825.41;2071652;69;20148;-69
2022/01/31 10:10:47;;;;;;;2.22;0.68;;;;;;;6.18;42.44;91834.38;2071696;69;20163;-73
2022/01/31 10:16:27;;;;;;;2.63;0.90;;;;;;;5.87;44.20;91846.41;2071545;69;20217;-70
2022/01/31 10:19:00;;;;;;;1.27;0.90;;;;;;;5.95;44.27;91843.41;2071869;69;20140;-69
2022/01/31 10:21:26;;;;;;;1.10;0.80;;;;;;;5.89;45.25;91852.09;2071801;69;20160;-78
2022/01/31 10:23:51;;;;;;;5.18;1.65;;;;;;;5.54;45.17;91875.03;2071513;69;20142;-69
2022/01/31 10:26:32;;;;;;;3.60;1.70;;;;;;;5.88;44.58;91866.69;2071678;69;20147;-69
2022/01/31 10:29:10;;;;;;;5.32;1.70;;;;;;;5.57;44.10;91868.22;2068470;69;20140;-68
2022/01/31 10:31:36;;;;;;;2.65;1.70;;;;;;;5.78;44.15;91870.28;2071861;69;20191;-68
2022/01/31 10:34:14;;;;;;;2.58;1.65;;;;;;;5.84;45.43;91867.16;2071722;69;20176;-70
2022/01/31 10:36:39;;;;;;;2.63;1.40;;;;;;;5.52;46.27;91869.31;2071745;69;20214;-78
2022/01/31 10:39:13;;;;;;;3.83;1.30;;;;;;;5.79;45.70;91882.91;2068384;69;20570;-78
2022/01/31 10:53:21;;;;;;;1.67;1.00;;;;;;;5.86;47.17;91867.28;2060665;69;20648;-69
2022/01/31 10:55:55;;;;;;;2.08;0.90;;;;;;;5.71;48.42;91870.50;2066033;69;20137;-71
2022/01/31 10:58:21;;;;;;;1.83;1.00;;;;;;;5.93;47.21;91869.16;2071642;69;20160;-77
2022/01/31 11:00:50;;;;;;;3.63;2.83;;;;;;;5.79;50.73;91873.81;2068354;69;20141;-79
2022/01/31 11:03:32;;;;;;;2.42;1.02;;;;;;;5.76;51.56;91867.34;2071605;69;20152;-67
2022/01/31 11:06:05;;;;;;;1.83;1.10;;;;;;;5.27;52.90;91869.78;2067980;69;20139;-73
2022/01/31 11:08:31;;;;;;;2.88;1.00;;;;;;;5.48;53.38;91873.88;2068237;69;20137;-72
2022/01/31 11:11:00;;;;;;;2.65;1.08;;;;;;;5.64;53.05;91886.13;2071644;69;20580;-73
2022/01/31 11:13:27;;;;;;;1.50;1.00;;;;;;;5.71;50.55;91876.06;2071498;69;20627;-83
2022/01/31 11:15:55;;;;;;;2.65;1.15;;;;;;;5.96;51.52;91862.38;2071501;69;20144;-71
2022/01/31 11:18:31;;;;;;;2.40;1.45;;;;;;;5.79;51.54;91871.03;2071536;69;20219;-72
2022/01/31 11:21:06;;;;;;;6.47;2.03;;;;;;;5.96;52.54;91879.16;2071461;69;20183;-75
2022/01/31 11:23:41;;;;;;;4.18;2.75;;;;;;;5.93;51.71;91883.13;2072027;69;20624;-73
2022/01/31 11:26:10;;;;;;;2.90;1.83;;;;;;;5.97;51.36;91875.00;2072100;69;20604;-71
2022/01/31 11:28:41;;;;;;;1.77;1.25;;;;;;;5.91;53.74;91859.88;2072009;69;20175;-76
2022/01/31 11:31:07;;;;;;;2.72;1.00;;;;;;;5.99;53.64;91860.44;2072059;69;20226;-71
2022/01/31 11:33:34;;;;;;;1.55;0.77;;;;;;;5.85;52.89;91852.56;2072018;69;20140;-71
2022/01/31 11:36:01;;;;;;;1.52;0.70;;;;;;;5.85;53.45;91858.16;2071889;69;20163;-82
2022/01/31 11:38:28;;;;;;;2.42;1.52;;;;;;;5.76;54.03;91847.06;2072049;69;20168;-68
2022/01/31 11:41:03;;;;;;;1.08;0.60;;;;;;;5.55;53.05;91848.56;2072073;69;20147;-77
2022/01/31 11:43:31;;;;;;;0.90;0.90;;;;;;;5.65;54.07;91834.53;2072251;69;20231;-71
2022/01/31 11:46:00;;;;;;;1.02;0.77;;;;;;;5.91;51.95;91851.50;2072237;69;20168;-71
2022/01/31 11:48:29;;;;;;;2.38;0.80;;;;;;;5.70;55.26;91858.59;2068505;69;20172;-73
2022/01/31 11:50:57;;;;;;;0.93;0.60;;;;;;;5.85;53.79;91852.56;2068966;69;20137;-74
2022/01/31 11:53:29;;;;;;;0.93;0.60;;;;;;;5.93;53.62;91874.03;2068127;69;20164;-68
2022/01/31 11:56:14;;;;;;;1.73;1.13;;;;;;;5.71;53.94;91885.19;2064395;69;20152;-68
2022/01/31 11:58:46;;;;;;;2.63;1.20;;;;;;;5.82;54.91;91837.03;2069442;69;20148;-67
2022/01/31 12:01:13;;;;;;;3.63;1.23;;;;;;;5.86;54.17;91851.25;2071556;69;20160;-70
2022/01/31 12:03:53;;;;;;;2.17;1.00;;;;;;;5.73;56.34;91868.56;2071382;69;20146;-69
2022/01/31 12:06:28;;;;;;;2.80;1.45;;;;;;;5.52;59.01;91871.38;2071230;69;20230;-68
2022/01/31 12:09:05;;;;;;;5.65;2.80;;;;;;;5.35;59.41;91858.38;2068588;69;20178;-72
2022/01/31 12:12:03;;;;;;;14.27;6.70;;;;;;;4.65;66.30;91869.03;2071420;69;20267;-68
2022/01/31 12:14:41;;;;;;;7.70;3.63;;;;;;;5.04;63.95;91875.91;2071601;69;20143;-68